Terminal Aerodrome Forecast
Issued by NWS Jackson, MS

Home | Current Version | Previous Version | Text Only | Print | Product List | Glossary On
Versions: 1 2 3 4 5 6 7 8 9 10 11 12
000
FTUS44 KJAN 312335
TAFHBG
TAF
KHBG 312335Z 0100/0124 04004KT P6SM FEW050 FEW250
     FM011000 36003KT 6SM BR FEW050 FEW250
     FM011300 01003KT P6SM FEW050 FEW250
     FM011700 02007KT P6SM FEW050 FEW090
     FM012100 36009KT P6SM FEW050 SCT090=

USA.gov is the U.S. government's official web portal to all federal, state and local government web resources and services.